sensor_id;sensor_type;location;lat;lon;timestamp;P1;durP1;ratioP1;P2;durP2;ratioP2
14078;SDS011;7115;50.150;8.568;2023-03-14T00:01:22;4.47;;;1.00;;
14078;SDS011;7115;50.150;8.568;2023-03-14T00:03:49;1.93;;;1.10;;
14078;SDS011;7115;50.150;8.568;2023-03-14T00:06:17;1.57;;;1.03;;
14078;SDS011;7115;50.150;8.568;2023-03-14T00:08:44;2.47;;;1.10;;
14078;SDS011;7115;50.150;8.568;2023-03-14T00:11:13;6.37;;;1.30;;
14078;SDS011;7115;50.150;8.568;2023-03-14T00:13:42;1.77;;;1.20;;
14078;SDS011;7115;50.150;8.568;2023-03-14T00:16:10;1.53;;;1.20;;
14078;SDS011;7115;50.150;8.568;2023-03-14T00:18:39;0.93;;;0.80;;
14078;SDS011;7115;50.150;8.568;2023-03-14T00:21:06;1.47;;;0.93;;
14078;SDS011;7115;50.150;8.568;2023-03-14T00:23:35;1.20;;;0.80;;
14078;SDS011;7115;50.150;8.568;2023-03-14T00:26:04;2.00;;;1.07;;
14078;SDS011;7115;50.150;8.568;2023-03-14T00:28:33;1.27;;;0.90;;
14078;SDS011;7115;50.150;8.568;2023-03-14T00:31:01;7.60;;;1.17;;
14078;SDS011;7115;50.150;8.568;2023-03-14T00:33:29;3.47;;;1.03;;
14078;SDS011;7115;50.150;8.568;2023-03-14T00:35:56;4.97;;;1.10;;
14078;SDS011;7115;50.150;8.568;2023-03-14T00:38:24;3.70;;;0.80;;
14078;SDS011;7115;50.150;8.568;2023-03-14T00:40:52;2.87;;;0.90;;
14078;SDS011;7115;50.150;8.568;2023-03-14T00:43:20;2.13;;;1.10;;
14078;SDS011;7115;50.150;8.568;2023-03-14T00:45:52;2.07;;;0.90;;
14078;SDS011;7115;50.150;8.568;2023-03-14T00:48:19;2.43;;;1.10;;
14078;SDS011;7115;50.150;8.568;2023-03-14T00:50:46;2.60;;;1.30;;
14078;SDS011;7115;50.150;8.568;2023-03-14T00:53:13;2.75;;;0.90;;
14078;SDS011;7115;50.150;8.568;2023-03-14T00:55:41;2.80;;;0.80;;
14078;SDS011;7115;50.150;8.568;2023-03-14T00:58:09;3.40;;;1.10;;
14078;SDS011;7115;50.150;8.568;2023-03-14T01:00:37;1.57;;;0.83;;
14078;SDS011;7115;50.150;8.568;2023-03-14T01:03:06;5.63;;;1.00;;
14078;SDS011;7115;50.150;8.568;2023-03-14T01:05:35;3.33;;;1.17;;
14078;SDS011;7115;50.150;8.568;2023-03-14T01:08:03;2.57;;;1.10;;
14078;SDS011;7115;50.150;8.568;2023-03-14T01:10:33;2.13;;;0.90;;
14078;SDS011;7115;50.150;8.568;2023-03-14T01:13:00;2.33;;;0.90;;
14078;SDS011;7115;50.150;8.568;2023-03-14T01:15:27;3.13;;;0.80;;
14078;SDS011;7115;50.150;8.568;2023-03-14T01:20:59;1.80;;;0.80;;
14078;SDS011;7115;50.150;8.568;2023-03-14T01:23:26;2.97;;;0.60;;
14078;SDS011;7115;50.150;8.568;2023-03-14T01:25:53;4.37;;;1.07;;
14078;SDS011;7115;50.150;8.568;2023-03-14T01:28:20;3.33;;;0.90;;
14078;SDS011;7115;50.150;8.568;2023-03-14T01:30:47;5.77;;;1.00;;
14078;SDS011;7115;50.150;8.568;2023-03-14T01:33:13;5.00;;;1.30;;
14078;SDS011;7115;50.150;8.568;2023-03-14T01:35:41;2.67;;;0.70;;
14078;SDS011;7115;50.150;8.568;2023-03-14T01:38:09;9.77;;;1.77;;
14078;SDS011;7115;50.150;8.568;2023-03-14T01:40:41;8.07;;;1.00;;
14078;SDS011;7115;50.150;8.568;2023-03-14T01:43:13;6.87;;;1.40;;
14078;SDS011;7115;50.150;8.568;2023-03-14T01:48:42;8.33;;;1.20;;
14078;SDS011;7115;50.150;8.568;2023-03-14T01:51:12;6.60;;;1.27;;
14078;SDS011;7115;50.150;8.568;2023-03-14T01:53:43;3.27;;;0.87;;
14078;SDS011;7115;50.150;8.568;2023-03-14T01:56:12;2.43;;;0.80;;
14078;SDS011;7115;50.150;8.568;2023-03-14T01:58:41;5.10;;;1.20;;
14078;SDS011;7115;50.150;8.568;2023-03-14T02:01:11;6.57;;;1.23;;
14078;SDS011;7115;50.150;8.568;2023-03-14T02:03:43;5.00;;;1.07;;
14078;SDS011;7115;50.150;8.568;2023-03-14T02:06:13;4.47;;;1.20;;
14078;SDS011;7115;50.150;8.568;2023-03-14T02:08:45;5.57;;;1.20;;
14078;SDS011;7115;50.150;8.568;2023-03-14T02:11:14;7.30;;;0.80;;
14078;SDS011;7115;50.150;8.568;2023-03-14T02:13:43;1.47;;;0.90;;
14078;SDS011;7115;50.150;8.568;2023-03-14T02:16:11;3.90;;;1.00;;
14078;SDS011;7115;50.150;8.568;2023-03-14T02:18:38;4.27;;;0.97;;
14078;SDS011;7115;50.150;8.568;2023-03-14T02:21:09;4.27;;;1.20;;
14078;SDS011;7115;50.150;8.568;2023-03-14T02:23:41;4.03;;;1.20;;
14078;SDS011;7115;50.150;8.568;2023-03-14T02:26:15;6.53;;;1.43;;
14078;SDS011;7115;50.150;8.568;2023-03-14T02:28:47;3.80;;;0.90;;
14078;SDS011;7115;50.150;8.568;2023-03-14T02:31:14;3.23;;;1.20;;
14078;SDS011;7115;50.150;8.568;2023-03-14T02:33:42;4.10;;;1.20;;
14078;SDS011;7115;50.150;8.568;2023-03-14T02:36:10;3.80;;;1.10;;
14078;SDS011;7115;50.150;8.568;2023-03-14T02:38:40;4.47;;;0.93;;
14078;SDS011;7115;50.150;8.568;2023-03-14T02:41:12;2.93;;;0.93;;
14078;SDS011;7115;50.150;8.568;2023-03-14T02:43:39;6.23;;;1.17;;
14078;SDS011;7115;50.150;8.568;2023-03-14T02:46:07;7.07;;;1.30;;
14078;SDS011;7115;50.150;8.568;2023-03-14T02:48:37;4.43;;;1.03;;
14078;SDS011;7115;50.150;8.568;2023-03-14T02:51:07;7.53;;;1.27;;
14078;SDS011;7115;50.150;8.568;2023-03-14T02:53:34;4.83;;;1.27;;
14078;SDS011;7115;50.150;8.568;2023-03-14T02:56:03;3.37;;;0.97;;
14078;SDS011;7115;50.150;8.568;2023-03-14T02:58:31;4.97;;;1.20;;
14078;SDS011;7115;50.150;8.568;2023-03-14T03:00:58;6.27;;;1.13;;
14078;SDS011;7115;50.150;8.568;2023-03-14T03:03:26;2.57;;;0.90;;
14078;SDS011;7115;50.150;8.568;2023-03-14T03:05:54;4.53;;;1.00;;
14078;SDS011;7115;50.150;8.568;2023-03-14T03:08:22;4.37;;;0.90;;
14078;SDS011;7115;50.150;8.568;2023-03-14T03:10:50;2.77;;;1.00;;
14078;SDS011;7115;50.150;8.568;2023-03-14T03:13:18;2.50;;;0.80;;
14078;SDS011;7115;50.150;8.568;2023-03-14T03:15:45;6.00;;;1.17;;
14078;SDS011;7115;50.150;8.568;2023-03-14T03:18:12;3.83;;;1.23;;
14078;SDS011;7115;50.150;8.568;2023-03-14T03:20:40;6.10;;;1.23;;
14078;SDS011;7115;50.150;8.568;2023-03-14T03:23:07;2.40;;;0.90;;
14078;SDS011;7115;50.150;8.568;2023-03-14T03:25:34;4.60;;;1.30;;
14078;SDS011;7115;50.150;8.568;2023-03-14T03:28:01;5.40;;;1.20;;
14078;SDS011;7115;50.150;8.568;2023-03-14T03:30:28;3.27;;;1.10;;
14078;SDS011;7115;50.150;8.568;2023-03-14T03:32:55;3.43;;;0.83;;
14078;SDS011;7115;50.150;8.568;2023-03-14T03:35:22;3.47;;;0.87;;
14078;SDS011;7115;50.150;8.568;2023-03-14T03:37:50;2.90;;;1.00;;
14078;SDS011;7115;50.150;8.568;2023-03-14T03:40:17;5.93;;;0.97;;
14078;SDS011;7115;50.150;8.568;2023-03-14T03:42:44;3.50;;;1.00;;
14078;SDS011;7115;50.150;8.568;2023-03-14T03:45:11;4.43;;;0.93;;
14078;SDS011;7115;50.150;8.568;2023-03-14T03:47:37;3.63;;;0.83;;
14078;SDS011;7115;50.150;8.568;2023-03-14T03:50:05;2.77;;;0.80;;
14078;SDS011;7115;50.150;8.568;2023-03-14T03:52:32;3.33;;;0.93;;
14078;SDS011;7115;50.150;8.568;2023-03-14T03:55:00;2.93;;;0.83;;
14078;SDS011;7115;50.150;8.568;2023-03-14T03:57:27;3.60;;;1.10;;
14078;SDS011;7115;50.150;8.568;2023-03-14T03:59:54;3.93;;;1.17;;
14078;SDS011;7115;50.150;8.568;2023-03-14T04:02:21;2.83;;;0.80;;
14078;SDS011;7115;50.150;8.568;2023-03-14T04:04:48;3.63;;;0.97;;
14078;SDS011;7115;50.150;8.568;2023-03-14T04:07:15;3.33;;;0.50;;
14078;SDS011;7115;50.150;8.568;2023-03-14T04:09:42;2.50;;;0.70;;
14078;SDS011;7115;50.150;8.568;2023-03-14T04:12:10;3.57;;;1.00;;
14078;SDS011;7115;50.150;8.568;2023-03-14T04:14:38;2.60;;;1.00;;
14078;SDS011;7115;50.150;8.568;2023-03-14T04:17:07;2.10;;;0.90;;
14078;SDS011;7115;50.150;8.568;2023-03-14T04:19:34;3.87;;;0.90;;
14078;SDS011;7115;50.150;8.568;2023-03-14T04:22:01;6.63;;;1.20;;
14078;SDS011;7115;50.150;8.568;2023-03-14T04:24:28;3.43;;;1.03;;
14078;SDS011;7115;50.150;8.568;2023-03-14T04:26:55;4.13;;;1.33;;
14078;SDS011;7115;50.150;8.568;2023-03-14T04:29:23;4.93;;;1.33;;
14078;SDS011;7115;50.150;8.568;2023-03-14T04:31:50;7.47;;;1.33;;
14078;SDS011;7115;50.150;8.568;2023-03-14T04:34:16;5.23;;;1.23;;
14078;SDS011;7115;50.150;8.568;2023-03-14T04:36:43;3.20;;;0.97;;
14078;SDS011;7115;50.150;8.568;2023-03-14T04:39:10;4.13;;;0.83;;
14078;SDS011;7115;50.150;8.568;2023-03-14T04:41:37;3.97;;;1.03;;
14078;SDS011;7115;50.150;8.568;2023-03-14T04:44:04;2.57;;;0.70;;
14078;SDS011;7115;50.150;8.568;2023-03-14T04:46:32;4.50;;;1.00;;
14078;SDS011;7115;50.150;8.568;2023-03-14T04:48:59;2.40;;;0.90;;
14078;SDS011;7115;50.150;8.568;2023-03-14T04:51:26;3.77;;;0.80;;
14078;SDS011;7115;50.150;8.568;2023-03-14T04:53:53;2.83;;;0.80;;
14078;SDS011;7115;50.150;8.568;2023-03-14T04:56:20;6.67;;;1.10;;
14078;SDS011;7115;50.150;8.568;2023-03-14T04:58:47;4.60;;;0.87;;
14078;SDS011;7115;50.150;8.568;2023-03-14T05:01:14;6.47;;;1.33;;
14078;SDS011;7115;50.150;8.568;2023-03-14T05:03:42;9.13;;;1.43;;
14078;SDS011;7115;50.150;8.568;2023-03-14T05:06:09;6.77;;;1.00;;
14078;SDS011;7115;50.150;8.568;2023-03-14T05:08:36;4.67;;;1.00;;
14078;SDS011;7115;50.150;8.568;2023-03-14T05:11:03;3.33;;;1.00;;
14078;SDS011;7115;50.150;8.568;2023-03-14T05:13:31;5.30;;;1.60;;
14078;SDS011;7115;50.150;8.568;2023-03-14T05:16:03;4.60;;;0.70;;
14078;SDS011;7115;50.150;8.568;2023-03-14T05:18:31;7.70;;;1.03;;
14078;SDS011;7115;50.150;8.568;2023-03-14T05:20:59;3.63;;;1.07;;
14078;SDS011;7115;50.150;8.568;2023-03-14T05:23:26;5.33;;;1.37;;
14078;SDS011;7115;50.150;8.568;2023-03-14T05:25:53;3.93;;;0.90;;
14078;SDS011;7115;50.150;8.568;2023-03-14T05:28:20;3.23;;;1.43;;
14078;SDS011;7115;50.150;8.568;2023-03-14T05:30:47;4.97;;;0.93;;
14078;SDS011;7115;50.150;8.568;2023-03-14T05:33:14;2.53;;;0.80;;
14078;SDS011;7115;50.150;8.568;2023-03-14T05:35:41;3.80;;;1.03;;
14078;SDS011;7115;50.150;8.568;2023-03-14T05:38:10;3.77;;;0.77;;
14078;SDS011;7115;50.150;8.568;2023-03-14T05:40:37;4.00;;;1.13;;
14078;SDS011;7115;50.150;8.568;2023-03-14T05:43:04;3.13;;;0.80;;
14078;SDS011;7115;50.150;8.568;2023-03-14T05:45:34;3.60;;;0.70;;
14078;SDS011;7115;50.150;8.568;2023-03-14T05:48:01;4.97;;;1.07;;
14078;SDS011;7115;50.150;8.568;2023-03-14T05:50:28;2.40;;;1.00;;
14078;SDS011;7115;50.150;8.568;2023-03-14T05:52:55;9.30;;;0.83;;
14078;SDS011;7115;50.150;8.568;2023-03-14T05:55:24;3.50;;;0.87;;
14078;SDS011;7115;50.150;8.568;2023-03-14T05:57:51;5.10;;;0.90;;
14078;SDS011;7115;50.150;8.568;2023-03-14T06:00:19;3.77;;;0.77;;
14078;SDS011;7115;50.150;8.568;2023-03-14T06:02:46;3.80;;;0.63;;
14078;SDS011;7115;50.150;8.568;2023-03-14T06:05:13;4.73;;;0.70;;
14078;SDS011;7115;50.150;8.568;2023-03-14T06:07:40;3.00;;;0.60;;
14078;SDS011;7115;50.150;8.568;2023-03-14T06:10:07;3.40;;;1.40;;
14078;SDS011;7115;50.150;8.568;2023-03-14T06:12:37;3.47;;;0.60;;
14078;SDS011;7115;50.150;8.568;2023-03-14T06:15:04;4.90;;;0.70;;
14078;SDS011;7115;50.150;8.568;2023-03-14T06:17:31;2.10;;;0.60;;
14078;SDS011;7115;50.150;8.568;2023-03-14T06:19:58;3.83;;;0.50;;
14078;SDS011;7115;50.150;8.568;2023-03-14T06:22:25;3.57;;;0.90;;
14078;SDS011;7115;50.150;8.568;2023-03-14T06:24:52;3.70;;;0.57;;
14078;SDS011;7115;50.150;8.568;2023-03-14T06:27:19;2.60;;;0.80;;
14078;SDS011;7115;50.150;8.568;2023-03-14T06:29:47;1.60;;;0.60;;
14078;SDS011;7115;50.150;8.568;2023-03-14T06:32:14;0.70;;;0.60;;
14078;SDS011;7115;50.150;8.568;2023-03-14T06:34:41;2.40;;;0.67;;
14078;SDS011;7115;50.150;8.568;2023-03-14T06:37:08;3.00;;;0.97;;
14078;SDS011;7115;50.150;8.568;2023-03-14T06:39:34;4.47;;;0.70;;
14078;SDS011;7115;50.150;8.568;2023-03-14T06:42:01;1.80;;;0.70;;
14078;SDS011;7115;50.150;8.568;2023-03-14T06:44:28;2.40;;;0.60;;
14078;SDS011;7115;50.150;8.568;2023-03-14T06:46:57;2.80;;;0.60;;
14078;SDS011;7115;50.150;8.568;2023-03-14T06:49:24;3.40;;;0.70;;
14078;SDS011;7115;50.150;8.568;2023-03-14T06:51:51;2.47;;;0.53;;
14078;SDS011;7115;50.150;8.568;2023-03-14T06:54:18;5.13;;;0.87;;
14078;SDS011;7115;50.150;8.568;2023-03-14T06:56:44;3.27;;;0.77;;
14078;SDS011;7115;50.150;8.568;2023-03-14T06:59:11;2.37;;;0.90;;
14078;SDS011;7115;50.150;8.568;2023-03-14T07:01:38;2.77;;;0.93;;
14078;SDS011;7115;50.150;8.568;2023-03-14T07:04:08;1.67;;;0.50;;
14078;SDS011;7115;50.150;8.568;2023-03-14T07:06:35;3.20;;;0.60;;
14078;SDS011;7115;50.150;8.568;2023-03-14T07:09:02;3.07;;;0.70;;
14078;SDS011;7115;50.150;8.568;2023-03-14T07:11:29;3.00;;;0.77;;
14078;SDS011;7115;50.150;8.568;2023-03-14T07:13:56;1.77;;;0.80;;
14078;SDS011;7115;50.150;8.568;2023-03-14T07:16:23;2.50;;;0.80;;
14078;SDS011;7115;50.150;8.568;2023-03-14T07:18:50;3.50;;;0.70;;
14078;SDS011;7115;50.150;8.568;2023-03-14T07:21:19;1.93;;;0.53;;
14078;SDS011;7115;50.150;8.568;2023-03-14T07:23:46;2.73;;;0.47;;
14078;SDS011;7115;50.150;8.568;2023-03-14T07:26:13;1.67;;;0.60;;
14078;SDS011;7115;50.150;8.568;2023-03-14T07:28:40;1.70;;;0.47;;
14078;SDS011;7115;50.150;8.568;2023-03-14T07:31:07;1.40;;;0.53;;
14078;SDS011;7115;50.150;8.568;2023-03-14T07:33:34;3.13;;;0.80;;
14078;SDS011;7115;50.150;8.568;2023-03-14T07:36:01;1.50;;;0.70;;
14078;SDS011;7115;50.150;8.568;2023-03-14T07:38:31;1.40;;;0.40;;
14078;SDS011;7115;50.150;8.568;2023-03-14T07:40:58;1.13;;;0.60;;
14078;SDS011;7115;50.150;8.568;2023-03-14T07:43:26;1.73;;;1.00;;
14078;SDS011;7115;50.150;8.568;2023-03-14T07:45:53;1.97;;;0.57;;
14078;SDS011;7115;50.150;8.568;2023-03-14T07:48:24;3.50;;;0.70;;
14078;SDS011;7115;50.150;8.568;2023-03-14T07:50:53;1.73;;;0.50;;
14078;SDS011;7115;50.150;8.568;2023-03-14T07:53:21;1.63;;;0.60;;
14078;SDS011;7115;50.150;8.568;2023-03-14T07:55:51;2.33;;;0.50;;
14078;SDS011;7115;50.150;8.568;2023-03-14T07:58:18;1.97;;;0.50;;
14078;SDS011;7115;50.150;8.568;2023-03-14T08:00:45;1.95;;;0.65;;
14078;SDS011;7115;50.150;8.568;2023-03-14T08:03:12;1.97;;;0.80;;
14078;SDS011;7115;50.150;8.568;2023-03-14T08:05:39;5.83;;;1.00;;
14078;SDS011;7115;50.150;8.568;2023-03-14T08:08:07;0.60;;;0.50;;
14078;SDS011;7115;50.150;8.568;2023-03-14T08:10:34;1.47;;;0.70;;
14078;SDS011;7115;50.150;8.568;2023-03-14T08:13:03;2.87;;;0.67;;
14078;SDS011;7115;50.150;8.568;2023-03-14T08:15:30;5.60;;;0.80;;
14078;SDS011;7115;50.150;8.568;2023-03-14T08:17:57;2.13;;;0.60;;
14078;SDS011;7115;50.150;8.568;2023-03-14T08:20:25;2.80;;;0.97;;
14078;SDS011;7115;50.150;8.568;2023-03-14T08:22:54;2.17;;;0.70;;
14078;SDS011;7115;50.150;8.568;2023-03-14T08:25:22;1.47;;;0.67;;
14078;SDS011;7115;50.150;8.568;2023-03-14T08:27:49;4.30;;;0.90;;
14078;SDS011;7115;50.150;8.568;2023-03-14T08:30:18;2.33;;;0.80;;
14078;SDS011;7115;50.150;8.568;2023-03-14T08:32:45;3.57;;;0.80;;
14078;SDS011;7115;50.150;8.568;2023-03-14T08:35:13;1.17;;;0.53;;
14078;SDS011;7115;50.150;8.568;2023-03-14T08:37:40;3.30;;;0.90;;
14078;SDS011;7115;50.150;8.568;2023-03-14T08:40:08;1.73;;;0.67;;
14078;SDS011;7115;50.150;8.568;2023-03-14T08:42:36;4.00;;;1.53;;
14078;SDS011;7115;50.150;8.568;2023-03-14T08:45:07;3.10;;;0.73;;
14078;SDS011;7115;50.150;8.568;2023-03-14T08:47:36;4.70;;;0.90;;
14078;SDS011;7115;50.150;8.568;2023-03-14T08:50:04;1.37;;;0.97;;
14078;SDS011;7115;50.150;8.568;2023-03-14T08:52:32;2.30;;;0.70;;
14078;SDS011;7115;50.150;8.568;2023-03-14T08:54:59;4.27;;;1.00;;
14078;SDS011;7115;50.150;8.568;2023-03-14T08:57:26;3.23;;;0.90;;
14078;SDS011;7115;50.150;8.568;2023-03-14T08:59:53;3.80;;;0.80;;
14078;SDS011;7115;50.150;8.568;2023-03-14T09:02:21;2.87;;;1.17;;
14078;SDS011;7115;50.150;8.568;2023-03-14T09:04:50;5.00;;;1.03;;
14078;SDS011;7115;50.150;8.568;2023-03-14T09:07:18;1.53;;;0.77;;
14078;SDS011;7115;50.150;8.568;2023-03-14T09:09:45;1.27;;;0.90;;
14078;SDS011;7115;50.150;8.568;2023-03-14T09:12:12;1.53;;;0.90;;
14078;SDS011;7115;50.150;8.568;2023-03-14T09:14:39;2.00;;;1.10;;
14078;SDS011;7115;50.150;8.568;2023-03-14T09:17:06;1.23;;;0.70;;
14078;SDS011;7115;50.150;8.568;2023-03-14T09:19:34;2.40;;;0.80;;
14078;SDS011;7115;50.150;8.568;2023-03-14T09:22:02;1.20;;;0.60;;
14078;SDS011;7115;50.150;8.568;2023-03-14T09:24:29;1.60;;;1.10;;
14078;SDS011;7115;50.150;8.568;2023-03-14T09:26:56;2.73;;;0.70;;
14078;SDS011;7115;50.150;8.568;2023-03-14T09:29:23;1.30;;;0.70;;
14078;SDS011;7115;50.150;8.568;2023-03-14T09:31:50;2.13;;;0.80;;
14078;SDS011;7115;50.150;8.568;2023-03-14T09:34:17;1.70;;;0.70;;
14078;SDS011;7115;50.150;8.568;2023-03-14T09:36:45;2.73;;;0.80;;
14078;SDS011;7115;50.150;8.568;2023-03-14T09:39:13;2.10;;;0.60;;
14078;SDS011;7115;50.150;8.568;2023-03-14T09:41:40;1.80;;;0.63;;
14078;SDS011;7115;50.150;8.568;2023-03-14T09:44:10;1.17;;;0.60;;
14078;SDS011;7115;50.150;8.568;2023-03-14T09:46:41;1.30;;;0.97;;
14078;SDS011;7115;50.150;8.568;2023-03-14T09:49:12;3.03;;;0.80;;
14078;SDS011;7115;50.150;8.568;2023-03-14T09:51:43;1.67;;;1.20;;
14078;SDS011;7115;50.150;8.568;2023-03-14T09:54:17;2.40;;;0.93;;
14078;SDS011;7115;50.150;8.568;2023-03-14T09:56:53;2.47;;;1.07;;
14078;SDS011;7115;50.150;8.568;2023-03-14T09:59:21;1.77;;;0.80;;
14078;SDS011;7115;50.150;8.568;2023-03-14T10:01:47;3.57;;;1.47;;
14078;SDS011;7115;50.150;8.568;2023-03-14T10:04:15;1.63;;;0.93;;
14078;SDS011;7115;50.150;8.568;2023-03-14T10:06:47;3.57;;;1.20;;
14078;SDS011;7115;50.150;8.568;2023-03-14T10:09:17;1.53;;;0.87;;
14078;SDS011;7115;50.150;8.568;2023-03-14T10:11:53;1.43;;;0.80;;
14078;SDS011;7115;50.150;8.568;2023-03-14T10:14:31;1.90;;;0.83;;
14078;SDS011;7115;50.150;8.568;2023-03-14T10:17:06;3.27;;;0.70;;
14078;SDS011;7115;50.150;8.568;2023-03-14T10:19:36;6.10;;;1.10;;
14078;SDS011;7115;50.150;8.568;2023-03-14T10:22:04;2.10;;;0.70;;
14078;SDS011;7115;50.150;8.568;2023-03-14T10:24:33;3.03;;;0.90;;
14078;SDS011;7115;50.150;8.568;2023-03-14T10:27:02;1.30;;;0.60;;
14078;SDS011;7115;50.150;8.568;2023-03-14T10:29:31;1.27;;;0.70;;
14078;SDS011;7115;50.150;8.568;2023-03-14T10:31:59;1.57;;;0.70;;
14078;SDS011;7115;50.150;8.568;2023-03-14T10:34:28;0.80;;;0.70;;
14078;SDS011;7115;50.150;8.568;2023-03-14T10:36:57;1.37;;;0.63;;
14078;SDS011;7115;50.150;8.568;2023-03-14T10:39:26;1.73;;;0.70;;
14078;SDS011;7115;50.150;8.568;2023-03-14T10:42:03;1.20;;;0.67;;
14078;SDS011;7115;50.150;8.568;2023-03-14T10:44:33;2.10;;;0.70;;
14078;SDS011;7115;50.150;8.568;2023-03-14T10:47:02;2.47;;;1.00;;
14078;SDS011;7115;50.150;8.568;2023-03-14T10:49:31;1.50;;;0.90;;
14078;SDS011;7115;50.150;8.568;2023-03-14T10:52:03;1.07;;;0.90;;
14078;SDS011;7115;50.150;8.568;2023-03-14T10:54:40;1.37;;;0.90;;
14078;SDS011;7115;50.150;8.568;2023-03-14T10:57:12;2.30;;;0.87;;
14078;SDS011;7115;50.150;8.568;2023-03-14T10:59:39;1.17;;;0.90;;
14078;SDS011;7115;50.150;8.568;2023-03-14T11:02:13;2.03;;;0.80;;
14078;SDS011;7115;50.150;8.568;2023-03-14T11:04:55;4.07;;;1.20;;
14078;SDS011;7115;50.150;8.568;2023-03-14T11:07:32;2.33;;;1.10;;
14078;SDS011;7115;50.150;8.568;2023-03-14T11:10:04;3.97;;;1.00;;
14078;SDS011;7115;50.150;8.568;2023-03-14T11:12:44;2.70;;;1.10;;
14078;SDS011;7115;50.150;8.568;2023-03-14T11:15:20;2.57;;;1.00;;
14078;SDS011;7115;50.150;8.568;2023-03-14T11:17:55;1.73;;;1.10;;
14078;SDS011;7115;50.150;8.568;2023-03-14T11:20:36;2.47;;;1.60;;
14078;SDS011;7115;50.150;8.568;2023-03-14T11:23:11;5.00;;;2.70;;
14078;SDS011;7115;50.150;8.568;2023-03-14T11:25:43;1.77;;;1.50;;
14078;SDS011;7115;50.150;8.568;2023-03-14T11:28:18;1.63;;;1.50;;
14078;SDS011;7115;50.150;8.568;2023-03-14T11:30:52;2.90;;;1.60;;
14078;SDS011;7115;50.150;8.568;2023-03-14T11:33:21;3.23;;;1.40;;
14078;SDS011;7115;50.150;8.568;2023-03-14T11:35:53;2.60;;;1.63;;
14078;SDS011;7115;50.150;8.568;2023-03-14T11:38:30;2.43;;;1.60;;
14078;SDS011;7115;50.150;8.568;2023-03-14T11:41:03;2.37;;;1.60;;
14078;SDS011;7115;50.150;8.568;2023-03-14T11:43:37;3.23;;;1.93;;
14078;SDS011;7115;50.150;8.568;2023-03-14T11:46:10;3.90;;;1.77;;
14078;SDS011;7115;50.150;8.568;2023-03-14T11:48:42;2.20;;;1.87;;
14078;SDS011;7115;50.150;8.568;2023-03-14T11:51:16;1.50;;;1.37;;
14078;SDS011;7115;50.150;8.568;2023-03-14T11:53:50;3.23;;;1.60;;
14078;SDS011;7115;50.150;8.568;2023-03-14T11:56:25;1.83;;;1.20;;
14078;SDS011;7115;50.150;8.568;2023-03-14T11:58:59;2.53;;;1.40;;
14078;SDS011;7115;50.150;8.568;2023-03-14T12:01:33;2.03;;;1.00;;
14078;SDS011;7115;50.150;8.568;2023-03-14T12:04:19;2.13;;;0.60;;
14078;SDS011;7115;50.150;8.568;2023-03-14T12:06:56;0.30;;;0.10;;
14078;SDS011;7115;50.150;8.568;2023-03-14T12:09:32;0.70;;;0.27;;
14078;SDS011;7115;50.150;8.568;2023-03-14T12:12:00;0.23;;;0.10;;
14078;SDS011;7115;50.150;8.568;2023-03-14T12:14:33;1.00;;;0.20;;
14078;SDS011;7115;50.150;8.568;2023-03-14T12:17:04;2.87;;;0.20;;
14078;SDS011;7115;50.150;8.568;2023-03-14T12:19:33;1.17;;;0.10;;
14078;SDS011;7115;50.150;8.568;2023-03-14T12:22:12;0.00;;;0.00;;
14078;SDS011;7115;50.150;8.568;2023-03-14T12:24:48;0.67;;;0.10;;
14078;SDS011;7115;50.150;8.568;2023-03-14T12:30:16;0.23;;;0.10;;
14078;SDS011;7115;50.150;8.568;2023-03-14T12:33:11;0.10;;;0.10;;
14078;SDS011;7115;50.150;8.568;2023-03-14T12:35:46;0.13;;;0.10;;
14078;SDS011;7115;50.150;8.568;2023-03-14T12:38:16;0.33;;;0.20;;
14078;SDS011;7115;50.150;8.568;2023-03-14T12:40:50;0.20;;;0.10;;
14078;SDS011;7115;50.150;8.568;2023-03-14T12:43:24;0.43;;;0.20;;
14078;SDS011;7115;50.150;8.568;2023-03-14T12:46:14;0.40;;;0.20;;
14078;SDS011;7115;50.150;8.568;2023-03-14T12:48:46;0.10;;;0.10;;
14078;SDS011;7115;50.150;8.568;2023-03-14T12:51:15;0.17;;;0.17;;
14078;SDS011;7115;50.150;8.568;2023-03-14T12:57:07;0.40;;;0.27;;
14078;SDS011;7115;50.150;8.568;2023-03-14T12:59:52;0.70;;;0.27;;
14078;SDS011;7115;50.150;8.568;2023-03-14T13:02:27;0.30;;;0.30;;
14078;SDS011;7115;50.150;8.568;2023-03-14T13:05:03;1.23;;;0.30;;
14078;SDS011;7115;50.150;8.568;2023-03-14T13:10:29;1.10;;;0.33;;
14078;SDS011;7115;50.150;8.568;2023-03-14T13:13:09;0.50;;;0.33;;
14078;SDS011;7115;50.150;8.568;2023-03-14T13:15:44;0.40;;;0.30;;
14078;SDS011;7115;50.150;8.568;2023-03-14T13:18:16;0.70;;;0.50;;
14078;SDS011;7115;50.150;8.568;2023-03-14T13:20:45;0.40;;;0.40;;
14078;SDS011;7115;50.150;8.568;2023-03-14T13:23:19;1.03;;;0.33;;
14078;SDS011;7115;50.150;8.568;2023-03-14T13:25:47;0.27;;;0.20;;
14078;SDS011;7115;50.150;8.568;2023-03-14T13:28:14;0.30;;;0.30;;
14078;SDS011;7115;50.150;8.568;2023-03-14T13:30:43;0.97;;;0.37;;
14078;SDS011;7115;50.150;8.568;2023-03-14T13:33:12;1.30;;;0.87;;
14078;SDS011;7115;50.150;8.568;2023-03-14T13:35:42;0.50;;;0.30;;
14078;SDS011;7115;50.150;8.568;2023-03-14T13:38:18;0.30;;;0.23;;
14078;SDS011;7115;50.150;8.568;2023-03-14T13:40:46;0.57;;;0.30;;
14078;SDS011;7115;50.150;8.568;2023-03-14T13:43:16;0.40;;;0.20;;
14078;SDS011;7115;50.150;8.568;2023-03-14T13:45:47;0.47;;;0.23;;
14078;SDS011;7115;50.150;8.568;2023-03-14T13:48:16;0.10;;;0.10;;
14078;SDS011;7115;50.150;8.568;2023-03-14T13:50:47;1.40;;;0.30;;
14078;SDS011;7115;50.150;8.568;2023-03-14T13:53:17;0.10;;;0.10;;
14078;SDS011;7115;50.150;8.568;2023-03-14T13:55:44;0.00;;;0.00;;
14078;SDS011;7115;50.150;8.568;2023-03-14T13:58:19;0.30;;;0.10;;
14078;SDS011;7115;50.150;8.568;2023-03-14T14:00:58;0.10;;;0.10;;
14078;SDS011;7115;50.150;8.568;2023-03-14T14:03:31;0.23;;;0.20;;
14078;SDS011;7115;50.150;8.568;2023-03-14T14:06:02;0.43;;;0.10;;
14078;SDS011;7115;50.150;8.568;2023-03-14T14:08:30;0.20;;;0.10;;
14078;SDS011;7115;50.150;8.568;2023-03-14T14:10:58;1.80;;;1.20;;
14078;SDS011;7115;50.150;8.568;2023-03-14T14:13:29;0.97;;;0.20;;
14078;SDS011;7115;50.150;8.568;2023-03-14T14:15:59;1.60;;;0.37;;
14078;SDS011;7115;50.150;8.568;2023-03-14T14:18:27;0.80;;;0.20;;
14078;SDS011;7115;50.150;8.568;2023-03-14T14:20:56;0.20;;;0.17;;
14078;SDS011;7115;50.150;8.568;2023-03-14T14:23:26;0.23;;;0.10;;
14078;SDS011;7115;50.150;8.568;2023-03-14T14:25:56;0.10;;;0.10;;
14078;SDS011;7115;50.150;8.568;2023-03-14T14:28:25;0.20;;;0.20;;
14078;SDS011;7115;50.150;8.568;2023-03-14T14:31:00;0.50;;;0.30;;
14078;SDS011;7115;50.150;8.568;2023-03-14T14:33:30;0.10;;;0.10;;
14078;SDS011;7115;50.150;8.568;2023-03-14T14:36:05;0.60;;;0.20;;
14078;SDS011;7115;50.150;8.568;2023-03-14T14:38:56;1.07;;;0.10;;
14078;SDS011;7115;50.150;8.568;2023-03-14T14:41:29;1.23;;;0.20;;
14078;SDS011;7115;50.150;8.568;2023-03-14T14:43:57;0.40;;;0.30;;
14078;SDS011;7115;50.150;8.568;2023-03-14T14:46:26;0.20;;;0.20;;
14078;SDS011;7115;50.150;8.568;2023-03-14T14:48:55;0.87;;;0.10;;
14078;SDS011;7115;50.150;8.568;2023-03-14T14:51:25;1.03;;;0.40;;
14078;SDS011;7115;50.150;8.568;2023-03-14T14:54:02;0.80;;;0.33;;
14078;SDS011;7115;50.150;8.568;2023-03-14T14:56:36;0.30;;;0.30;;
14078;SDS011;7115;50.150;8.568;2023-03-14T14:59:04;0.30;;;0.30;;
14078;SDS011;7115;50.150;8.568;2023-03-14T15:01:34;0.67;;;0.40;;
14078;SDS011;7115;50.150;8.568;2023-03-14T15:04:04;0.53;;;0.40;;
14078;SDS011;7115;50.150;8.568;2023-03-14T15:06:37;0.90;;;0.50;;
14078;SDS011;7115;50.150;8.568;2023-03-14T15:09:05;1.20;;;0.70;;
14078;SDS011;7115;50.150;8.568;2023-03-14T15:11:34;1.17;;;0.40;;
14078;SDS011;7115;50.150;8.568;2023-03-14T15:14:01;0.83;;;0.53;;
14078;SDS011;7115;50.150;8.568;2023-03-14T15:16:30;0.63;;;0.50;;
14078;SDS011;7115;50.150;8.568;2023-03-14T15:18:58;0.40;;;0.40;;
14078;SDS011;7115;50.150;8.568;2023-03-14T15:21:39;0.73;;;0.60;;
14078;SDS011;7115;50.150;8.568;2023-03-14T15:24:09;0.53;;;0.37;;
14078;SDS011;7115;50.150;8.568;2023-03-14T15:26:36;0.93;;;0.30;;
14078;SDS011;7115;50.150;8.568;2023-03-14T15:29:04;0.40;;;0.30;;